Fort Monroe, Virginia
Current Conditions -  °F | °C
As of 4:59 PM on Wednesday 28 Jan 2015 (Local Time) from KNGU Reporting Station
Clear Clear  
Wind Chill: 35°   Ceiling: Unl
Heat Index: 42°   Visibility: 10mi
Dew Point:   Wind: 14mph
Humidity: 26%   Direction: 320°NW
Pressure: 30.23"   Gusts: NA
Location:  37.01°N, 76.31°W
Report Text: KNGU 282159Z 32012KT 10SM CLR 06/M13 A3023 RMK AO2 SLP236 T00561128
Loading
Personal Weather Stations






























Interactive Weather Map New forecast layout! Learn more

10-Day Weather Forecast

Advertisements
Track Severe Weather on mobile